createdAt,value
2019-02-25T00:02:31.593Z,24.23
2019-02-25T00:06:35.378Z,25.10
2019-02-25T00:10:39.460Z,31.87
2019-02-25T00:14:42.754Z,24.00
2019-02-25T00:18:46.126Z,27.77
2019-02-25T00:22:49.408Z,30.93
2019-02-25T00:26:52.712Z,31.23
2019-02-25T00:30:56.001Z,26.57
2019-02-25T00:34:59.741Z,19.07
2019-02-25T00:39:03.357Z,29.17
2019-02-25T00:43:07.049Z,30.43
2019-02-25T00:47:10.347Z,25.60
2019-02-25T00:51:13.651Z,26.03
2019-02-25T00:55:18.486Z,27.83
2019-02-25T00:59:21.778Z,27.23
2019-02-25T01:03:25.107Z,30.93
2019-02-25T01:07:28.390Z,31.83
2019-02-25T01:11:31.781Z,31.57
2019-02-25T01:15:35.570Z,30.10
2019-02-25T01:19:38.878Z,35.43
2019-02-25T01:23:42.690Z,34.27
2019-02-25T01:27:45.986Z,24.97
2019-02-25T01:31:49.293Z,27.50
2019-02-25T01:35:53.375Z,28.43
2019-02-25T01:39:57.099Z,30.43
2019-02-25T01:44:00.702Z,32.20
2019-02-25T01:48:04.063Z,31.90
2019-02-25T01:52:07.359Z,31.53
2019-02-25T01:56:10.978Z,33.10
2019-02-25T02:00:14.794Z,32.77
2019-02-25T02:04:18.122Z,27.97
2019-02-25T02:08:21.411Z,28.43
2019-02-25T02:12:24.734Z,22.30
2019-02-25T02:16:28.018Z,28.97
2019-02-25T02:20:31.322Z,25.20
2019-02-25T02:24:34.899Z,33.30
2019-02-25T02:28:38.794Z,25.77
2019-02-25T02:32:42.508Z,31.00
2019-02-25T02:36:46.237Z,27.70
2019-02-25T02:40:49.545Z,22.73
2019-02-25T02:44:54.258Z,26.27
2019-02-25T02:49:00.139Z,23.30
2019-02-25T02:53:03.438Z,25.70
2019-02-25T02:57:10.582Z,30.07
2019-02-25T03:01:13.858Z,27.77
2019-02-25T03:05:18.495Z,24.07
2019-02-25T03:09:21.787Z,21.73
2019-02-25T03:13:25.876Z,21.70
2019-02-25T03:17:29.186Z,21.47
2019-02-25T03:21:32.482Z,23.40
2019-02-25T03:25:35.762Z,22.90
2019-02-25T03:29:39.808Z,19.93
2019-02-25T03:33:43.092Z,20.60
2019-02-25T03:37:46.928Z,18.93
2019-02-25T03:41:50.255Z,27.63
2019-02-25T03:45:53.554Z,25.27
2019-02-25T03:49:57.966Z,25.77
2019-02-25T03:54:01.975Z,23.30
2019-02-25T03:58:05.790Z,23.20
2019-02-25T04:02:09.094Z,26.87
2019-02-25T04:06:12.378Z,23.20
2019-02-25T04:10:15.859Z,18.50
2019-02-25T04:14:19.602Z,25.37
2019-02-25T04:18:22.903Z,22.43
2019-02-25T04:22:26.963Z,22.07
2019-02-25T04:26:30.963Z,22.10
2019-02-25T04:30:34.684Z,22.50
2019-02-25T04:34:38.254Z,19.67
2019-02-25T04:38:41.542Z,21.50
2019-02-25T04:42:45.126Z,19.03
2019-02-25T04:46:48.430Z,22.83
2019-02-25T04:50:51.948Z,19.70
2019-02-25T04:54:55.674Z,21.27
2019-02-25T04:58:58.994Z,31.13
2019-02-25T05:03:02.282Z,26.93
2019-02-25T05:07:06.026Z,30.60
2019-02-25T05:11:09.314Z,27.77
2019-02-25T05:15:15.454Z,28.77
2019-02-25T05:19:19.501Z,23.67
2019-02-25T05:23:23.219Z,28.63
2019-02-25T05:27:27.234Z,26.87
2019-02-25T05:31:30.850Z,28.03
2019-02-25T05:35:34.150Z,27.77
2019-02-25T05:39:37.452Z,28.00
2019-02-25T05:43:41.080Z,24.53
2019-02-25T05:47:44.392Z,25.60
2019-02-25T05:51:48.099Z,27.80
2019-02-25T05:55:51.406Z,29.03
2019-02-25T05:59:55.759Z,32.70
2019-02-25T06:03:59.482Z,30.60
2019-02-25T06:08:03.578Z,25.73
2019-02-25T06:12:06.863Z,36.80
2019-02-25T06:16:10.206Z,23.47
2019-02-25T06:20:13.811Z,24.43
2019-02-25T06:24:17.534Z,22.33
2019-02-25T06:28:21.111Z,25.43
2019-02-25T06:32:24.486Z,23.10
2019-02-25T06:36:28.024Z,21.33
2019-02-25T06:40:31.403Z,19.87
2019-02-25T06:44:35.114Z,22.73
2019-02-25T06:48:38.413Z,25.50
2019-02-25T06:52:41.778Z,27.60
2019-02-25T06:56:45.054Z,23.33
2019-02-25T07:00:49.190Z,24.63
2019-02-25T07:04:57.869Z,24.10
2019-02-25T07:09:14.418Z,23.37
2019-02-25T07:13:37.743Z,25.80
2019-02-25T07:17:59.070Z,36.57
2019-02-25T07:22:40.164Z,30.00
2019-02-25T07:27:05.542Z,35.40
2019-02-25T07:31:19.654Z,37.20
2019-02-25T07:35:43.613Z,30.90
2019-02-25T07:40:15.050Z,28.60
2019-02-25T07:44:36.369Z,30.70
2019-02-25T07:48:52.305Z,29.73
2019-02-25T07:53:19.050Z,25.47
2019-02-25T07:57:35.586Z,24.77
2019-02-25T08:01:53.226Z,26.27
2019-02-25T08:06:27.159Z,26.10
2019-02-25T08:10:39.530Z,25.87
2019-02-25T08:15:02.411Z,25.93
2019-02-25T08:19:23.914Z,24.43
2019-02-25T08:23:52.850Z,26.80
2019-02-25T08:28:07.522Z,25.23
2019-02-25T08:32:29.599Z,22.03
2019-02-25T08:37:19.249Z,25.00
2019-02-25T08:41:33.434Z,22.97
2019-02-25T08:45:52.403Z,22.60
2019-02-25T08:49:59.281Z,21.20
2019-02-25T08:54:03.086Z,22.93
2019-02-25T08:58:06.374Z,22.60
2019-02-25T09:02:09.682Z,25.57
2019-02-25T09:06:13.265Z,23.63
2019-02-25T09:10:17.310Z,19.70
2019-02-25T09:14:21.199Z,22.30
2019-02-25T09:18:24.518Z,19.30
2019-02-25T09:22:27.808Z,17.00
2019-02-25T09:26:31.119Z,17.97
2019-02-25T09:30:34.418Z,19.30
2019-02-25T09:34:38.471Z,19.57
2019-02-25T09:38:42.051Z,16.27
2019-02-25T09:42:45.526Z,14.40
2019-02-25T09:46:49.554Z,14.80
2019-02-25T09:50:53.194Z,15.17
2019-02-25T09:54:56.932Z,15.47
2019-02-25T09:59:00.239Z,16.17
2019-02-25T10:03:03.984Z,14.67
2019-02-25T10:07:07.806Z,14.87
2019-02-25T10:11:11.615Z,15.07
2019-02-25T10:15:15.398Z,16.17
2019-02-25T10:19:19.146Z,14.60
2019-02-25T10:23:22.867Z,14.60
2019-02-25T10:27:26.169Z,14.27
2019-02-25T10:31:29.458Z,13.93
2019-02-25T10:35:33.070Z,14.70
2019-02-25T10:39:36.818Z,14.37
2019-02-25T10:43:40.118Z,15.40
2019-02-25T10:47:44.732Z,15.67
2019-02-25T10:51:49.631Z,16.07
2019-02-25T10:55:58.810Z,15.47
2019-02-25T11:00:05.019Z,16.17
2019-02-25T11:04:08.410Z,17.70
2019-02-25T11:08:14.202Z,15.33
2019-02-25T11:12:17.551Z,15.53
2019-02-25T11:16:21.442Z,15.43
2019-02-25T11:20:24.886Z,14.60
2019-02-25T11:24:28.182Z,15.43
2019-02-25T11:28:32.253Z,16.83
2019-02-25T11:32:36.502Z,14.30
2019-02-25T11:36:40.239Z,16.10
2019-02-25T11:40:43.996Z,14.20
2019-02-25T11:44:47.284Z,14.30
2019-02-25T11:48:51.338Z,16.10
2019-02-25T11:52:55.359Z,15.80
2019-02-25T11:56:59.160Z,14.90
2019-02-25T12:01:02.458Z,17.03
2019-02-25T12:05:06.250Z,15.90
2019-02-25T12:09:09.558Z,16.83
2019-02-25T12:13:13.302Z,16.47
2019-02-25T12:17:16.590Z,15.10
2019-02-25T12:21:20.587Z,15.50
2019-02-25T12:25:24.836Z,14.43
2019-02-25T12:29:28.574Z,14.43
2019-02-25T12:33:31.863Z,16.77
2019-02-25T12:37:35.170Z,15.07
2019-02-25T12:41:38.458Z,15.77
2019-02-25T12:45:41.830Z,15.83
2019-02-25T12:49:45.114Z,12.90
2019-02-25T12:53:48.926Z,13.97
2019-02-25T12:57:52.218Z,15.20
2019-02-25T13:01:55.966Z,13.80
2019-02-25T13:06:01.446Z,13.70
2019-02-25T13:10:06.462Z,12.77
2019-02-25T13:14:10.198Z,13.77
2019-02-25T13:18:13.498Z,14.83
2019-02-25T13:22:17.230Z,13.17
2019-02-25T13:26:20.623Z,13.17
2019-02-25T13:30:23.934Z,15.87
2019-02-25T13:34:27.294Z,15.17
2019-02-25T13:38:30.710Z,14.73
2019-02-25T13:42:34.078Z,15.10
2019-02-25T13:46:37.912Z,16.43
2019-02-25T13:50:41.646Z,15.90
2019-02-25T13:54:45.299Z,14.20
2019-02-25T13:58:48.916Z,13.10
2019-02-25T14:02:52.827Z,13.47
2019-02-25T14:06:56.190Z,13.70
2019-02-25T14:11:00.270Z,14.73
2019-02-25T14:15:03.754Z,13.87
2019-02-25T14:19:07.134Z,15.53
2019-02-25T14:23:11.064Z,13.67
2019-02-25T14:27:15.123Z,13.60
2019-02-25T14:31:18.426Z,14.53
2019-02-25T14:35:22.835Z,15.23
2019-02-25T14:39:28.435Z,13.70
2019-02-25T14:43:37.189Z,15.60
2019-02-25T14:47:39.565Z,14.70
2019-02-25T14:51:42.436Z,15.03
2019-02-25T14:55:47.816Z,15.07
2019-02-25T14:59:51.134Z,16.53
2019-02-25T15:03:55.990Z,39.47
2019-02-25T15:07:59.962Z,15.50
2019-02-25T15:12:04.134Z,14.20
2019-02-25T15:16:09.377Z,15.43
2019-02-25T15:20:16.392Z,15.70
2019-02-25T15:24:19.089Z,15.37
2019-02-25T15:28:22.878Z,16.73
2019-02-25T15:32:27.207Z,16.37
2019-02-25T15:36:30.558Z,14.83
2019-02-25T15:40:34.371Z,15.47
2019-02-25T15:44:37.658Z,16.60
2019-02-25T15:48:43.145Z,16.47
2019-02-25T15:52:46.903Z,16.57
2019-02-25T15:56:50.194Z,16.57
2019-02-25T16:00:53.998Z,18.00
2019-02-25T16:04:58.643Z,28.20
2019-02-25T16:09:03.654Z,14.33
2019-02-25T16:13:11.157Z,24.43
2019-02-25T16:17:12.054Z,13.40
2019-02-25T16:21:15.890Z,14.90
2019-02-25T16:25:19.282Z,14.27
2019-02-25T16:29:23.010Z,14.60
2019-02-25T16:33:28.189Z,13.80
2019-02-25T16:37:33.461Z,12.53
2019-02-25T16:41:39.251Z,14.60
2019-02-25T16:45:44.619Z,12.73
2019-02-25T16:49:49.821Z,14.80
2019-02-25T16:53:53.015Z,15.63
2019-02-25T16:57:59.074Z,16.93
2019-02-25T17:02:04.671Z,12.43
2019-02-25T17:06:09.211Z,13.77
2019-02-25T17:10:14.058Z,14.17
2019-02-25T17:14:19.157Z,15.27
2019-02-25T17:18:23.567Z,18.80
2019-02-25T17:22:27.286Z,17.00
2019-02-25T17:26:31.046Z,17.50
2019-02-25T17:30:34.341Z,14.73
2019-02-25T17:34:39.378Z,17.40
2019-02-25T17:38:45.208Z,16.30
2019-02-25T17:42:49.429Z,15.57
2019-02-25T17:46:55.312Z,15.33
2019-02-25T17:50:59.813Z,15.77
2019-02-25T17:55:06.362Z,16.93
2019-02-25T17:59:10.270Z,15.93
2019-02-25T18:03:14.972Z,17.80
2019-02-25T18:07:19.114Z,17.00
2019-02-25T18:11:24.181Z,26.23
2019-02-25T18:15:30.546Z,19.80
2019-02-25T18:19:34.038Z,17.17
2019-02-25T18:23:37.659Z,18.30
2019-02-25T18:27:41.417Z,16.47
2019-02-25T18:31:46.003Z,17.10
2019-02-25T18:35:49.294Z,16.80
2019-02-25T18:39:54.217Z,15.50
2019-02-25T18:43:57.618Z,16.83
2019-02-25T18:48:02.072Z,17.73
2019-02-25T18:52:06.134Z,20.40
2019-02-25T18:56:11.897Z,18.50
2019-02-25T19:00:19.988Z,16.30
2019-02-25T19:04:23.950Z,19.80
2019-02-25T19:08:29.085Z,18.77
2019-02-25T19:12:33.603Z,14.20
2019-02-25T19:16:38.038Z,15.00
2019-02-25T19:20:43.360Z,16.23
2019-02-25T19:24:49.255Z,20.50
2019-02-25T19:28:54.704Z,23.30
2019-02-25T19:33:07.923Z,25.30
2019-02-25T19:37:05.156Z,27.10
2019-02-25T19:41:11.025Z,24.20
2019-02-25T19:45:14.674Z,20.83
2019-02-25T19:49:20.379Z,18.50
2019-02-25T19:53:23.602Z,24.93
2019-02-25T19:57:28.498Z,19.93
2019-02-25T20:01:32.511Z,21.23
2019-02-25T20:05:38.950Z,20.80
2019-02-25T20:09:41.311Z,19.03
2019-02-25T20:13:45.703Z,22.90
2019-02-25T20:17:52.842Z,25.00
2019-02-25T20:21:56.867Z,20.63
2019-02-25T20:26:00.282Z,20.83
2019-02-25T20:30:05.352Z,20.60
2019-02-25T20:34:10.335Z,25.00
2019-02-25T20:38:13.894Z,23.00
2019-02-25T20:42:20.933Z,26.27
2019-02-25T20:46:24.523Z,25.57
2019-02-25T20:50:27.503Z,22.80
2019-02-25T20:54:30.798Z,26.43
2019-02-25T20:58:36.064Z,22.17
2019-02-25T21:02:39.923Z,24.67
2019-02-25T21:06:44.095Z,30.47
2019-02-25T21:10:48.278Z,24.00
2019-02-25T21:14:52.018Z,23.60
2019-02-25T21:18:55.406Z,24.43
2019-02-25T21:23:02.825Z,28.33
2019-02-25T21:27:05.883Z,21.77
2019-02-25T21:31:13.523Z,24.93
2019-02-25T21:35:14.414Z,18.47
2019-02-25T21:39:19.163Z,25.40
2019-02-25T21:43:24.138Z,21.13
2019-02-25T21:47:28.693Z,22.77
2019-02-25T21:51:35.178Z,20.00
2019-02-25T21:55:38.502Z,22.60
2019-02-25T21:59:41.786Z,26.03
2019-02-25T22:03:48.017Z,24.90
2019-02-25T22:07:54.440Z,22.90
2019-02-25T22:11:55.562Z,22.23
2019-02-25T22:16:01.096Z,23.97
2019-02-25T22:20:07.501Z,23.90
2019-02-25T22:24:11.042Z,21.20
2019-02-25T22:28:14.843Z,37.83
2019-02-25T22:32:18.148Z,31.33
2019-02-25T22:36:21.430Z,27.33
2019-02-25T22:40:24.730Z,24.90
2019-02-25T22:44:30.744Z,27.73
2019-02-25T22:48:35.711Z,22.90
2019-02-25T22:52:39.011Z,24.33
2019-02-25T22:56:42.294Z,21.47
2019-02-25T23:00:58.276Z,19.40
2019-02-25T23:04:59.723Z,24.27
2019-02-25T23:09:03.415Z,26.83
2019-02-25T23:13:07.219Z,22.73
2019-02-25T23:17:11.485Z,18.67
2019-02-25T23:21:23.519Z,28.63
2019-02-25T23:25:21.830Z,25.27
2019-02-25T23:29:28.240Z,22.70
2019-02-25T23:33:31.015Z,25.20
2019-02-25T23:37:34.742Z,18.00
2019-02-25T23:41:39.040Z,21.17
2019-02-25T23:45:44.295Z,21.13
2019-02-25T23:49:48.649Z,23.63
2019-02-25T23:53:53.569Z,32.43
2019-02-25T23:57:57.598Z,25.93
